createdAt,value
2023-02-04T00:01:51.758Z,2.60
2023-02-04T00:04:21.046Z,3.08
2023-02-04T00:06:50.345Z,2.38
2023-02-04T00:09:19.671Z,3.25
2023-02-04T00:11:48.928Z,2.40
2023-02-04T00:14:18.273Z,3.30
2023-02-04T00:16:47.527Z,3.42
2023-02-04T00:19:17.116Z,3.60
2023-02-04T00:21:46.409Z,2.60
2023-02-04T00:24:15.687Z,2.65
2023-02-04T00:26:44.936Z,2.97
2023-02-04T00:29:14.236Z,3.35
2023-02-04T00:31:43.694Z,2.85
2023-02-04T00:34:13.074Z,2.70
2023-02-04T00:36:42.365Z,3.22
2023-02-04T00:39:11.624Z,2.72
2023-02-04T00:41:41.306Z,3.30
2023-02-04T00:44:10.650Z,2.63
2023-02-04T00:46:39.957Z,2.60
2023-02-04T00:49:10.788Z,3.00
2023-02-04T00:51:41.307Z,4.18
2023-02-04T00:54:10.589Z,4.00
2023-02-04T00:56:39.836Z,3.67
2023-02-04T00:59:09.140Z,3.13
2023-02-04T01:01:38.491Z,2.95
2023-02-04T01:04:08.119Z,3.20
2023-02-04T01:06:37.696Z,3.92
2023-02-04T01:09:08.448Z,2.63
2023-02-04T01:11:37.762Z,2.42
2023-02-04T01:14:07.104Z,3.13
2023-02-04T01:16:36.599Z,2.45
2023-02-04T01:19:05.991Z,2.95
2023-02-04T01:21:35.473Z,3.80
2023-02-04T01:24:04.758Z,3.03
2023-02-04T01:26:35.253Z,2.85
2023-02-04T01:29:04.535Z,3.10
2023-02-04T01:31:34.214Z,3.30
2023-02-04T01:34:05.069Z,3.33
2023-02-04T01:36:34.351Z,3.45
2023-02-04T01:39:03.684Z,3.75
2023-02-04T01:41:32.950Z,2.83
2023-02-04T01:44:02.314Z,3.50
2023-02-04T01:46:31.648Z,3.80
2023-02-04T01:49:00.980Z,4.28
2023-02-04T01:51:32.106Z,4.22
2023-02-04T01:54:04.497Z,3.25
2023-02-04T01:56:34.563Z,3.58
2023-02-04T01:59:04.561Z,3.05
2023-02-04T02:01:41.924Z,3.28
2023-02-04T02:04:12.409Z,3.55
2023-02-04T02:06:43.556Z,3.72
2023-02-04T02:09:12.989Z,4.32
2023-02-04T02:11:42.413Z,2.50
2023-02-04T02:14:11.979Z,2.92
2023-02-04T02:16:41.439Z,3.60
2023-02-04T02:19:13.011Z,3.72
2023-02-04T02:21:43.689Z,2.67
2023-02-04T02:24:27.851Z,2.53
2023-02-04T02:26:57.860Z,2.88
2023-02-04T02:29:27.751Z,3.08
2023-02-04T02:31:58.358Z,2.67
2023-02-04T02:34:30.379Z,2.85
2023-02-04T02:37:00.640Z,3.00
2023-02-04T02:39:30.197Z,4.00
2023-02-04T02:42:00.169Z,3.65
2023-02-04T02:44:30.579Z,2.67
2023-02-04T02:47:00.043Z,3.45
2023-02-04T02:49:31.667Z,3.80
2023-02-04T02:52:00.955Z,3.20
2023-02-04T02:54:31.806Z,3.38
2023-02-04T02:57:04.737Z,3.28
2023-02-04T02:59:34.001Z,3.80
2023-02-04T03:02:06.411Z,2.95
2023-02-04T03:04:40.051Z,3.75
2023-02-04T03:07:11.779Z,4.22
2023-02-04T03:09:41.264Z,4.25
2023-02-04T03:12:10.623Z,3.50
2023-02-04T03:14:40.796Z,3.17
2023-02-04T03:17:11.938Z,5.53
2023-02-04T03:19:42.018Z,4.13
2023-02-04T03:22:11.761Z,3.45
2023-02-04T03:24:41.096Z,3.60
2023-02-04T03:27:10.440Z,3.00
2023-02-04T03:29:45.244Z,3.92
2023-02-04T03:32:15.115Z,5.03
2023-02-04T03:34:44.432Z,4.45
2023-02-04T03:37:13.792Z,3.58
2023-02-04T03:39:43.162Z,3.30
2023-02-04T03:42:12.456Z,3.60
2023-02-04T03:44:41.734Z,3.05
2023-02-04T03:47:11.025Z,3.08
2023-02-04T03:49:40.315Z,2.88
2023-02-04T03:52:09.674Z,4.35
2023-02-04T03:54:38.885Z,3.72
2023-02-04T03:57:08.233Z,4.40
2023-02-04T03:59:37.529Z,4.05
2023-02-04T04:02:06.808Z,3.85
2023-02-04T04:04:36.332Z,3.95
2023-02-04T04:07:05.626Z,4.90
2023-02-04T04:09:34.933Z,3.92
2023-02-04T04:12:04.639Z,3.90
2023-02-04T04:14:33.960Z,3.88
2023-02-04T04:17:03.255Z,3.90
2023-02-04T04:19:33.214Z,4.18
2023-02-04T04:22:02.781Z,4.57
2023-02-04T04:24:32.216Z,3.95
2023-02-04T04:27:01.519Z,4.55
2023-02-04T04:29:31.058Z,4.85
2023-02-04T04:32:00.470Z,3.13
2023-02-04T04:34:29.751Z,3.53
2023-02-04T04:36:59.065Z,3.95
2023-02-04T04:39:28.313Z,3.70
2023-02-04T04:41:57.583Z,4.78
2023-02-04T04:44:26.963Z,4.43
2023-02-04T04:46:56.226Z,3.47
2023-02-04T04:49:28.523Z,4.05
2023-02-04T04:51:57.814Z,4.32
2023-02-04T04:54:27.120Z,3.85
2023-02-04T04:56:56.416Z,5.15
2023-02-04T04:59:28.764Z,3.55
2023-02-04T05:01:58.099Z,4.07
2023-02-04T05:04:27.648Z,3.53
2023-02-04T05:06:56.996Z,3.97
2023-02-04T05:09:26.344Z,4.00
2023-02-04T05:11:56.179Z,5.13
2023-02-04T05:14:25.482Z,4.25
2023-02-04T05:16:54.773Z,4.47
2023-02-04T05:19:23.996Z,4.32
2023-02-04T05:21:53.471Z,5.28
2023-02-04T05:24:24.256Z,4.50
2023-02-04T05:26:53.523Z,5.20
2023-02-04T05:29:23.957Z,4.65
2023-02-04T05:31:53.543Z,4.95
2023-02-04T05:34:23.052Z,4.95
2023-02-04T05:36:52.345Z,4.28
2023-02-04T05:39:21.696Z,3.83
2023-02-04T05:41:51.051Z,4.10
2023-02-04T05:44:20.444Z,4.00
2023-02-04T05:46:49.917Z,4.05
2023-02-04T05:49:19.321Z,3.80
2023-02-04T05:51:48.596Z,4.32
2023-02-04T05:54:20.609Z,4.15
2023-02-04T05:56:53.807Z,4.05
2023-02-04T05:59:23.090Z,5.57
2023-02-04T06:01:52.353Z,4.45
2023-02-04T06:04:23.648Z,4.28
2023-02-04T06:06:55.311Z,4.30
2023-02-04T06:09:24.607Z,4.75
2023-02-04T06:11:53.987Z,4.20
2023-02-04T06:14:23.299Z,4.78
2023-02-04T06:16:52.578Z,3.85
2023-02-04T06:19:21.943Z,4.18
2023-02-04T06:21:51.274Z,4.22
2023-02-04T06:24:20.570Z,4.47
2023-02-04T06:26:49.879Z,5.15
2023-02-04T06:29:21.963Z,6.03
2023-02-04T06:31:51.422Z,4.43
2023-02-04T06:34:21.094Z,4.95
2023-02-04T06:36:50.369Z,4.75
2023-02-04T06:39:21.108Z,4.97
2023-02-04T06:41:50.505Z,6.30
2023-02-04T06:44:19.753Z,5.05
2023-02-04T06:46:49.011Z,5.53
2023-02-04T06:49:18.293Z,4.97
2023-02-04T06:51:48.473Z,5.25
2023-02-04T06:54:17.701Z,4.70
2023-02-04T06:56:47.572Z,4.57
2023-02-04T06:59:16.836Z,5.00
2023-02-04T07:01:46.225Z,5.38
2023-02-04T07:04:15.743Z,4.78
2023-02-04T07:06:45.026Z,6.22
2023-02-04T07:09:14.311Z,6.68
2023-02-04T07:11:43.670Z,5.15
2023-02-04T07:14:13.131Z,5.30
2023-02-04T07:16:42.426Z,5.07
2023-02-04T07:19:11.731Z,5.45
2023-02-04T07:21:41.049Z,5.25
2023-02-04T07:24:10.502Z,5.55
2023-02-04T07:26:39.790Z,6.35
2023-02-04T07:29:17.360Z,5.28
2023-02-04T07:31:51.883Z,5.85
2023-02-04T07:34:22.934Z,6.25
2023-02-04T07:36:52.607Z,5.35
2023-02-04T07:39:21.964Z,6.07
2023-02-04T07:41:51.283Z,6.82
2023-02-04T07:44:25.889Z,6.07
2023-02-04T07:46:55.105Z,6.18
2023-02-04T07:49:24.392Z,5.78
2023-02-04T07:51:53.634Z,5.47
2023-02-04T07:54:22.891Z,6.38
2023-02-04T07:56:52.255Z,6.07
2023-02-04T07:59:21.720Z,6.78
2023-02-04T08:01:51.073Z,7.70
2023-02-04T08:04:20.398Z,6.85
2023-02-04T08:06:49.627Z,8.98
2023-02-04T08:09:18.913Z,7.93
2023-02-04T08:11:48.136Z,7.68
2023-02-04T08:14:17.458Z,7.80
2023-02-04T08:16:46.772Z,7.88
2023-02-04T08:19:19.149Z,8.23
2023-02-04T08:24:18.391Z,8.30
2023-02-04T08:26:47.815Z,8.20
2023-02-04T08:29:17.078Z,8.25
2023-02-04T08:31:47.787Z,8.20
2023-02-04T08:34:17.280Z,8.35
2023-02-04T08:36:46.771Z,8.30
2023-02-04T08:39:16.033Z,9.90
2023-02-04T08:41:45.302Z,8.75
2023-02-04T08:44:14.597Z,9.07
2023-02-04T08:46:44.203Z,9.00
2023-02-04T08:49:13.611Z,8.05
2023-02-04T08:51:42.881Z,8.75
2023-02-04T08:54:12.216Z,7.38
2023-02-04T08:56:41.461Z,7.57
2023-02-04T08:59:10.775Z,7.18
2023-02-04T09:01:40.337Z,7.18
2023-02-04T09:04:09.638Z,8.00
2023-02-04T09:06:38.854Z,8.30
2023-02-04T09:09:08.054Z,9.27
2023-02-04T09:11:37.407Z,7.63
2023-02-04T09:14:07.192Z,8.90
2023-02-04T09:16:36.591Z,8.05
2023-02-04T09:19:06.038Z,9.88
2023-02-04T09:21:35.277Z,7.57
2023-02-04T09:24:04.520Z,8.98
2023-02-04T09:26:33.809Z,7.45
2023-02-04T09:29:03.201Z,8.70
2023-02-04T09:31:32.556Z,7.05
2023-02-04T09:34:02.390Z,7.60
2023-02-04T09:36:34.295Z,8.38
2023-02-04T09:39:04.184Z,7.10
2023-02-04T09:41:33.466Z,7.05
2023-02-04T09:44:03.170Z,6.50
2023-02-04T09:46:33.033Z,7.43
2023-02-04T09:49:03.655Z,8.00
2023-02-04T09:51:34.558Z,7.63
2023-02-04T09:54:09.876Z,7.55
2023-02-04T09:56:39.290Z,7.70
2023-02-04T09:59:19.939Z,6.40
2023-02-04T10:01:51.265Z,7.38
2023-02-04T10:04:20.663Z,7.70
2023-02-04T10:06:49.972Z,6.50
2023-02-04T10:09:19.710Z,8.30
2023-02-04T10:11:50.496Z,7.13
2023-02-04T10:14:22.375Z,7.80
2023-02-04T10:16:59.567Z,7.75
2023-02-04T10:19:30.319Z,7.55
2023-02-04T10:21:59.864Z,7.35
2023-02-04T10:24:30.860Z,7.07
2023-02-04T10:27:11.107Z,7.80
2023-02-04T10:29:42.315Z,7.72
2023-02-04T10:32:30.225Z,7.53
2023-02-04T10:35:00.381Z,7.43
2023-02-04T10:37:30.803Z,6.40
2023-02-04T10:40:00.401Z,7.53
2023-02-04T10:42:31.214Z,6.10
2023-02-04T10:45:01.155Z,6.43
2023-02-04T10:47:31.854Z,7.43
2023-02-04T10:50:06.272Z,6.05
2023-02-04T10:52:41.408Z,6.25
2023-02-04T10:55:14.156Z,6.53
2023-02-04T10:57:44.414Z,5.57
2023-02-04T11:00:18.636Z,6.10
2023-02-04T11:02:48.091Z,6.05
2023-02-04T11:05:18.809Z,6.30
2023-02-04T11:07:49.529Z,7.20
2023-02-04T11:10:20.771Z,5.90
2023-02-04T11:13:01.544Z,6.47
2023-02-04T11:15:41.654Z,5.78
2023-02-04T11:18:13.008Z,4.75
2023-02-04T11:20:44.102Z,6.25
2023-02-04T11:23:39.787Z,5.03
2023-02-04T11:26:19.143Z,6.70
2023-02-04T11:29:10.890Z,6.22
2023-02-04T11:31:52.229Z,7.18
2023-02-04T11:34:21.795Z,5.68
2023-02-04T11:36:58.474Z,5.53
2023-02-04T11:39:49.147Z,6.50
2023-02-04T11:42:23.111Z,7.57
2023-02-04T11:44:53.328Z,5.50
2023-02-04T11:47:23.218Z,6.82
2023-02-04T11:49:57.002Z,5.10
2023-02-04T11:52:26.247Z,7.15
2023-02-04T11:54:56.129Z,5.25
2023-02-04T11:57:25.389Z,6.00
2023-02-04T11:59:54.877Z,5.80
2023-02-04T12:02:26.121Z,6.28
2023-02-04T12:04:55.493Z,6.03
2023-02-04T12:07:27.310Z,6.10
2023-02-04T12:09:56.731Z,7.72
2023-02-04T12:12:30.783Z,5.55
2023-02-04T12:15:01.335Z,5.07
2023-02-04T12:17:30.659Z,5.05
2023-02-04T12:19:59.977Z,6.40
2023-02-04T12:22:29.281Z,4.55
2023-02-04T12:24:58.525Z,5.45
2023-02-04T12:27:27.787Z,3.95
2023-02-04T12:29:57.084Z,4.93
2023-02-04T12:32:26.363Z,3.67
2023-02-04T12:34:55.598Z,4.13
2023-02-04T12:37:24.896Z,5.15
2023-02-04T12:39:54.172Z,4.53
2023-02-04T12:42:23.433Z,5.57
2023-02-04T12:44:52.738Z,4.65
2023-02-04T12:47:22.069Z,4.60
2023-02-04T12:49:51.393Z,4.13
2023-02-04T12:52:20.657Z,4.30
2023-02-04T12:54:49.890Z,5.18
2023-02-04T12:57:20.114Z,3.67
2023-02-04T12:59:49.847Z,4.15
2023-02-04T13:02:19.110Z,6.13
2023-02-04T13:04:48.459Z,4.47
2023-02-04T13:07:17.697Z,4.93
2023-02-04T13:09:47.773Z,4.82
2023-02-04T13:12:17.319Z,4.80
2023-02-04T13:14:46.557Z,6.95
2023-02-04T13:17:15.851Z,4.57
2023-02-04T13:19:45.156Z,4.30
2023-02-04T13:22:14.417Z,5.32
2023-02-04T13:24:43.709Z,4.65
2023-02-04T13:27:13.619Z,4.35
2023-02-04T13:29:42.862Z,5.65
2023-02-04T13:32:12.309Z,5.65
2023-02-04T13:34:41.567Z,3.50
2023-02-04T13:37:10.965Z,5.38
2023-02-04T13:39:40.302Z,3.78
2023-02-04T13:42:09.655Z,3.70
2023-02-04T13:44:38.950Z,3.78
2023-02-04T13:47:08.195Z,4.00
2023-02-04T13:49:39.271Z,4.03
2023-02-04T13:52:08.558Z,4.28
2023-02-04T13:54:37.888Z,4.97
2023-02-04T13:57:07.886Z,4.45
2023-02-04T13:59:37.193Z,3.55
2023-02-04T14:02:06.556Z,3.58
2023-02-04T14:04:36.941Z,4.32
2023-02-04T14:07:06.319Z,3.28
2023-02-04T14:09:35.607Z,4.07
2023-02-04T14:12:06.507Z,3.85
2023-02-04T14:14:35.768Z,4.00
2023-02-04T14:17:04.994Z,4.00
2023-02-04T14:19:38.107Z,6.63
2023-02-04T14:22:07.834Z,5.03
2023-02-04T14:24:37.076Z,5.57
2023-02-04T14:27:07.774Z,4.78
2023-02-04T14:29:37.212Z,5.75
2023-02-04T14:32:06.490Z,4.57
2023-02-04T14:34:35.759Z,4.50
2023-02-04T14:37:05.015Z,5.07
2023-02-04T14:39:34.286Z,4.95
2023-02-04T14:42:05.282Z,4.28
2023-02-04T14:44:35.044Z,5.20
2023-02-04T14:47:04.346Z,4.50
2023-02-04T14:49:36.938Z,6.47
2023-02-04T14:52:06.676Z,4.50
2023-02-04T14:54:35.992Z,4.50
2023-02-04T14:57:05.324Z,5.10
2023-02-04T14:59:34.533Z,4.55
2023-02-04T15:02:04.140Z,4.72
2023-02-04T15:04:33.500Z,3.88
2023-02-04T15:07:02.790Z,4.35
2023-02-04T15:09:32.423Z,5.10
2023-02-04T15:12:01.686Z,4.88
2023-02-04T15:14:31.222Z,3.88
2023-02-04T15:17:00.565Z,4.18
2023-02-04T15:19:29.842Z,6.15
2023-02-04T15:21:59.127Z,5.38
2023-02-04T15:24:29.608Z,6.25
2023-02-04T15:26:58.948Z,5.28
2023-02-04T15:29:28.193Z,4.50
2023-02-04T15:31:57.597Z,5.75
2023-02-04T15:34:27.076Z,4.55
2023-02-04T15:36:56.345Z,4.55
2023-02-04T15:39:25.629Z,4.20
2023-02-04T15:41:54.874Z,5.40
2023-02-04T15:44:24.352Z,4.35
2023-02-04T15:46:54.348Z,4.00
2023-02-04T15:49:23.845Z,4.65
2023-02-04T15:51:53.127Z,5.88
2023-02-04T15:54:22.509Z,4.63
2023-02-04T15:56:51.778Z,3.88
2023-02-04T15:59:21.137Z,4.15
2023-02-04T16:01:50.734Z,5.00
2023-02-04T16:04:20.962Z,3.97
2023-02-04T16:06:58.361Z,4.35
2023-02-04T16:09:28.120Z,4.15
2023-02-04T16:11:57.372Z,4.38
2023-02-04T16:14:26.759Z,4.00
2023-02-04T16:16:56.096Z,4.50
2023-02-04T16:19:25.357Z,3.90
2023-02-04T16:21:54.671Z,4.93
2023-02-04T16:24:23.951Z,4.60
2023-02-04T16:26:53.279Z,5.57
2023-02-04T16:29:22.515Z,3.78
2023-02-04T16:31:53.294Z,5.15
2023-02-04T16:34:22.716Z,3.97
2023-02-04T16:36:52.329Z,3.83
2023-02-04T16:39:21.775Z,4.82
2023-02-04T16:41:53.764Z,4.05
2023-02-04T16:44:23.086Z,3.92
2023-02-04T16:46:52.463Z,3.97
2023-02-04T16:49:21.771Z,5.60
2023-02-04T16:51:51.142Z,4.47
2023-02-04T16:54:20.473Z,3.65
2023-02-04T16:56:49.696Z,3.75
2023-02-04T16:59:19.074Z,4.75
2023-02-04T17:01:48.446Z,4.10
2023-02-04T17:04:17.721Z,3.63
2023-02-04T17:06:46.968Z,4.43
2023-02-04T17:09:16.238Z,4.95
2023-02-04T17:11:45.772Z,5.13
2023-02-04T17:14:16.591Z,6.63
2023-02-04T17:16:46.151Z,4.30
2023-02-04T17:19:17.589Z,3.70
2023-02-04T17:21:47.449Z,6.23
2023-02-04T17:24:16.824Z,4.25
2023-02-04T17:26:46.238Z,3.88
2023-02-04T17:29:17.958Z,5.85
2023-02-04T17:31:47.371Z,5.35
2023-02-04T17:34:16.681Z,4.60
2023-02-04T17:36:45.926Z,4.88
2023-02-04T17:39:15.244Z,6.45
2023-02-04T17:41:44.534Z,5.45
2023-02-04T17:44:17.215Z,5.32
2023-02-04T17:46:46.544Z,5.53
2023-02-04T17:49:16.177Z,5.60
2023-02-04T17:51:45.407Z,7.47
2023-02-04T17:54:14.720Z,5.78
2023-02-04T17:56:44.054Z,5.35
2023-02-04T17:59:13.691Z,5.95
2023-02-04T18:01:44.834Z,3.88
2023-02-04T18:04:15.303Z,4.82
2023-02-04T18:06:44.555Z,8.10
2023-02-04T18:09:20.740Z,8.55
2023-02-04T18:11:50.039Z,10.38
2023-02-04T18:14:27.778Z,9.95
2023-02-04T18:17:00.587Z,14.15
2023-02-04T18:19:35.231Z,7.43
2023-02-04T18:22:08.621Z,5.90
2023-02-04T18:24:39.770Z,6.07
2023-02-04T18:27:15.571Z,6.32
2023-02-04T18:29:46.127Z,6.05
2023-02-04T18:32:44.977Z,8.13
2023-02-04T18:35:27.943Z,5.85
2023-02-04T18:37:57.158Z,6.32
2023-02-04T18:40:31.208Z,7.25
2023-02-04T18:43:27.265Z,8.00
2023-02-04T18:45:56.929Z,6.90
2023-02-04T18:48:26.227Z,4.10
2023-02-04T18:50:56.415Z,4.63
2023-02-04T18:53:25.959Z,5.15
2023-02-04T18:55:57.934Z,4.88
2023-02-04T18:58:27.319Z,4.45
2023-02-04T19:01:01.431Z,4.32
2023-02-04T19:03:42.145Z,5.28
2023-02-04T19:06:31.849Z,3.50
2023-02-04T19:09:05.431Z,5.30
2023-02-04T19:11:39.191Z,5.00
2023-02-04T19:14:17.815Z,4.50
2023-02-04T19:16:47.703Z,4.35
2023-02-04T19:19:35.840Z,4.65
2023-02-04T19:22:34.733Z,4.25
2023-02-04T19:25:22.844Z,4.15
2023-02-04T19:28:15.396Z,4.68
2023-02-04T19:30:51.084Z,4.35
2023-02-04T19:33:22.716Z,4.82
2023-02-04T19:35:52.540Z,5.60
2023-02-04T19:38:45.318Z,4.82
2023-02-04T19:41:31.723Z,5.57
2023-02-04T19:44:13.787Z,5.60
2023-02-04T19:46:44.057Z,5.38
2023-02-04T19:49:19.484Z,4.07
2023-02-04T19:51:50.718Z,5.05
2023-02-04T19:54:23.230Z,4.55
2023-02-04T19:56:54.982Z,5.38
2023-02-04T19:59:24.395Z,11.23
2023-02-04T20:02:00.889Z,6.22
2023-02-04T20:04:35.281Z,4.47
2023-02-04T20:07:04.682Z,4.72
2023-02-04T20:09:36.794Z,5.60
2023-02-04T20:12:11.495Z,4.72
2023-02-04T20:14:49.395Z,4.65
2023-02-04T20:17:25.203Z,4.78
2023-02-04T20:19:54.746Z,4.93
2023-02-04T20:22:23.948Z,4.82
2023-02-04T20:24:57.510Z,4.50
2023-02-04T20:27:28.174Z,4.22
2023-02-04T20:30:00.568Z,5.65
2023-02-04T20:32:31.335Z,5.13
2023-02-04T20:35:09.658Z,5.38
2023-02-04T20:37:38.984Z,4.97
2023-02-04T20:40:20.191Z,5.80
2023-02-04T20:42:52.843Z,6.10
2023-02-04T20:45:25.000Z,6.55
2023-02-04T20:47:55.872Z,7.18
2023-02-04T20:50:32.682Z,5.72
2023-02-04T20:53:05.076Z,6.75
2023-02-04T20:58:11.252Z,7.00
2023-02-04T21:00:42.126Z,6.15
2023-02-04T21:03:17.448Z,5.95
2023-02-04T21:05:48.251Z,6.40
2023-02-04T21:08:35.524Z,6.90
2023-02-04T21:11:05.235Z,6.47
2023-02-04T21:13:34.694Z,4.97
2023-02-04T21:16:04.254Z,6.13
2023-02-04T21:18:34.581Z,6.63
2023-02-04T21:21:05.339Z,6.90
2023-02-04T21:23:34.637Z,5.72
2023-02-04T21:26:03.948Z,6.82
2023-02-04T21:28:33.455Z,6.82
2023-02-04T21:31:03.128Z,6.75
2023-02-04T21:33:32.743Z,8.70
2023-02-04T21:36:02.034Z,6.85
2023-02-04T21:38:31.307Z,7.47
2023-02-04T21:41:00.576Z,6.03
2023-02-04T21:43:29.913Z,6.25
2023-02-04T21:45:59.324Z,6.10
2023-02-04T21:48:28.569Z,7.47
2023-02-04T21:50:57.837Z,6.53
2023-02-04T21:53:27.232Z,7.78
2023-02-04T21:55:58.451Z,6.82
2023-02-04T21:58:28.598Z,7.72
2023-02-04T22:00:57.877Z,6.95
2023-02-04T22:03:27.178Z,7.93
2023-02-04T22:05:56.465Z,6.40
2023-02-04T22:08:25.928Z,7.00
2023-02-04T22:10:55.657Z,6.85
2023-02-04T22:13:24.954Z,8.25
2023-02-04T22:15:54.198Z,9.30
2023-02-04T22:18:23.493Z,6.68
2023-02-04T22:20:52.799Z,7.13
2023-02-04T22:23:22.068Z,7.75
2023-02-04T22:25:51.281Z,6.55
2023-02-04T22:28:20.677Z,8.45
2023-02-04T22:30:50.053Z,7.68
2023-02-04T22:33:19.454Z,6.72
2023-02-04T22:35:48.757Z,6.88
2023-02-04T22:38:20.150Z,6.50
2023-02-04T22:40:50.195Z,7.47
2023-02-04T22:43:19.459Z,6.65
2023-02-04T22:45:48.667Z,6.57
2023-02-04T22:48:17.945Z,6.13
2023-02-04T22:50:47.236Z,6.35
2023-02-04T22:53:16.490Z,8.20
2023-02-04T22:55:45.722Z,6.93
2023-02-04T22:58:15.023Z,6.90
2023-02-04T23:00:44.602Z,7.47
2023-02-04T23:03:13.932Z,7.20
2023-02-04T23:05:43.318Z,6.93
2023-02-04T23:08:12.556Z,6.82
2023-02-04T23:10:41.758Z,6.35
2023-02-04T23:13:11.072Z,7.30
2023-02-04T23:15:40.463Z,6.47
2023-02-04T23:18:09.686Z,7.05
2023-02-04T23:20:40.837Z,6.60
2023-02-04T23:23:14.884Z,6.07
2023-02-04T23:25:44.138Z,6.47
2023-02-04T23:28:13.441Z,7.07
2023-02-04T23:30:42.825Z,7.80
2023-02-04T23:33:12.094Z,7.43
2023-02-04T23:35:41.348Z,6.70
2023-02-04T23:38:10.595Z,7.55
2023-02-04T23:40:39.842Z,6.45
2023-02-04T23:43:10.831Z,7.40
2023-02-04T23:45:40.380Z,7.65
2023-02-04T23:48:10.034Z,7.50
2023-02-04T23:50:39.454Z,7.55
2023-02-04T23:53:08.717Z,7.40
2023-02-04T23:55:37.963Z,6.35
2023-02-04T23:58:08.043Z,7.50
